createdAt,value
2022-09-10T00:01:36.135Z,8.93
2022-09-10T00:04:03.643Z,7.47
2022-09-10T00:06:33.124Z,11.17
2022-09-10T00:09:01.219Z,9.93
2022-09-10T00:11:32.217Z,7.53
2022-09-10T00:14:04.357Z,8.13
2022-09-10T00:16:32.261Z,9.43
2022-09-10T00:19:01.105Z,11.07
2022-09-10T00:21:29.909Z,9.50
2022-09-10T00:23:57.364Z,8.97
2022-09-10T00:26:26.773Z,7.30
2022-09-10T00:28:55.455Z,7.57
2022-09-10T00:31:23.524Z,7.97
2022-09-10T00:33:52.494Z,7.80
2022-09-10T00:36:25.048Z,12.17
2022-09-10T00:38:57.786Z,6.93
2022-09-10T00:41:24.980Z,7.90
2022-09-10T00:43:53.315Z,10.47
2022-09-10T00:46:33.658Z,7.90
2022-09-10T00:49:05.803Z,11.93
2022-09-10T00:51:35.206Z,8.93
2022-09-10T00:54:03.918Z,7.17
2022-09-10T00:56:32.370Z,10.10
2022-09-10T00:58:59.321Z,12.07
2022-09-10T01:01:26.043Z,11.13
2022-09-10T01:03:54.356Z,9.03
2022-09-10T01:06:21.154Z,8.83
2022-09-10T01:08:47.869Z,7.30
2022-09-10T01:11:26.667Z,11.10
2022-09-10T01:14:02.352Z,7.20
2022-09-10T01:16:38.236Z,8.40
2022-09-10T01:19:23.080Z,10.73
2022-09-10T01:21:57.706Z,11.77
2022-09-10T01:24:58.362Z,8.70
2022-09-10T01:27:54.204Z,9.03
2022-09-10T01:30:35.596Z,10.40
2022-09-10T01:33:16.752Z,12.93
2022-09-10T01:36:09.623Z,9.57
2022-09-10T01:38:38.941Z,11.40
2022-09-10T01:41:05.950Z,7.87
2022-09-10T01:43:33.837Z,9.50
2022-09-10T01:46:22.216Z,7.83
2022-09-10T01:49:08.361Z,9.20
2022-09-10T01:52:00.181Z,9.60
2022-09-10T01:54:45.544Z,11.17
2022-09-10T01:57:50.301Z,10.43
2022-09-10T02:00:19.120Z,10.30
2022-09-10T02:03:01.030Z,14.20
2022-09-10T02:05:30.789Z,9.27
2022-09-10T02:08:01.946Z,10.03
2022-09-10T02:10:28.890Z,9.90
2022-09-10T02:12:55.938Z,10.37
2022-09-10T02:15:26.407Z,9.20
2022-09-10T02:17:53.700Z,11.53
2022-09-10T02:20:22.133Z,9.77
2022-09-10T02:22:53.373Z,10.20
2022-09-10T02:25:20.476Z,8.97
2022-09-10T02:27:47.293Z,8.87
2022-09-10T02:30:13.907Z,8.10
2022-09-10T02:32:40.597Z,10.90
2022-09-10T02:35:07.675Z,10.10
2022-09-10T02:37:34.394Z,10.50
2022-09-10T02:40:01.318Z,8.90
2022-09-10T02:42:27.973Z,10.23
2022-09-10T02:44:54.765Z,8.83
2022-09-10T02:47:21.361Z,11.13
2022-09-10T02:49:48.214Z,11.93
2022-09-10T02:52:14.837Z,8.87
2022-09-10T02:54:41.469Z,13.37
2022-09-10T02:57:08.252Z,9.27
2022-09-10T02:59:34.941Z,10.33
2022-09-10T03:02:01.657Z,11.17
2022-09-10T03:04:28.373Z,12.10
2022-09-10T03:06:55.392Z,12.30
2022-09-10T03:09:22.874Z,12.70
2022-09-10T03:11:51.234Z,11.37
2022-09-10T03:14:20.992Z,10.07
2022-09-10T03:16:47.955Z,11.40
2022-09-10T03:19:15.617Z,10.33
2022-09-10T03:21:42.725Z,15.50
2022-09-10T03:24:10.339Z,15.03
2022-09-10T03:26:37.418Z,12.13
2022-09-10T03:29:04.677Z,15.00
2022-09-10T03:31:31.372Z,12.20
2022-09-10T03:33:59.705Z,16.63
2022-09-10T03:36:29.402Z,11.87
2022-09-10T03:38:56.081Z,12.03
2022-09-10T03:41:22.718Z,11.87
2022-09-10T03:43:49.596Z,14.70
2022-09-10T03:46:16.386Z,14.23
2022-09-10T03:48:45.795Z,13.63
2022-09-10T03:51:12.906Z,12.63
2022-09-10T03:53:40.928Z,17.67
2022-09-10T03:56:08.486Z,13.53
2022-09-10T03:58:35.867Z,13.97
2022-09-10T04:01:03.150Z,12.27
2022-09-10T04:03:29.920Z,16.03
2022-09-10T04:05:58.513Z,14.93
2022-09-10T04:08:25.347Z,13.87
2022-09-10T04:10:51.999Z,12.47
2022-09-10T04:13:18.876Z,14.77
2022-09-10T04:15:46.220Z,13.67
2022-09-10T04:18:13.127Z,12.97
2022-09-10T04:20:40.502Z,12.53
2022-09-10T04:23:07.377Z,12.37
2022-09-10T04:25:34.180Z,15.60
2022-09-10T04:28:01.903Z,11.53
2022-09-10T04:30:28.973Z,15.00
2022-09-10T04:32:55.708Z,12.30
2022-09-10T04:35:22.494Z,13.83
2022-09-10T04:37:49.219Z,11.77
2022-09-10T04:40:21.410Z,15.57
2022-09-10T04:42:48.066Z,15.83
2022-09-10T04:45:15.172Z,14.10
2022-09-10T04:47:41.706Z,12.43
2022-09-10T04:50:08.910Z,16.23
2022-09-10T04:52:36.082Z,15.33
2022-09-10T04:55:02.861Z,16.17
2022-09-10T04:57:29.628Z,17.80
2022-09-10T04:59:57.810Z,14.70
2022-09-10T05:02:24.553Z,15.33
2022-09-10T05:04:51.254Z,12.53
2022-09-10T05:07:18.023Z,14.33
2022-09-10T05:09:44.634Z,12.80
2022-09-10T05:12:11.334Z,16.60
2022-09-10T05:14:38.164Z,12.73
2022-09-10T05:17:05.812Z,11.97
2022-09-10T05:19:32.484Z,14.37
2022-09-10T05:21:59.178Z,14.67
2022-09-10T05:24:27.378Z,12.27
2022-09-10T05:26:54.012Z,13.47
2022-09-10T05:29:22.046Z,16.30
2022-09-10T05:31:48.920Z,13.87
2022-09-10T05:34:15.634Z,13.67
2022-09-10T05:36:42.539Z,17.60
2022-09-10T05:39:09.205Z,14.53
2022-09-10T05:41:37.309Z,15.23
2022-09-10T05:44:05.154Z,14.90
2022-09-10T05:46:33.042Z,18.43
2022-09-10T05:48:59.666Z,16.53
2022-09-10T05:51:30.754Z,12.90
2022-09-10T05:53:57.964Z,12.20
2022-09-10T05:56:25.801Z,14.90
2022-09-10T05:58:52.617Z,14.47
2022-09-10T06:01:19.628Z,15.37
2022-09-10T06:03:46.307Z,16.20
2022-09-10T06:06:13.291Z,12.67
2022-09-10T06:08:40.431Z,17.40
2022-09-10T06:11:07.979Z,14.63
2022-09-10T06:13:35.113Z,16.70
2022-09-10T06:16:02.003Z,16.40
2022-09-10T06:18:29.070Z,16.63
2022-09-10T06:21:13.297Z,15.97
2022-09-10T06:23:40.275Z,16.87
2022-09-10T06:26:10.683Z,16.70
2022-09-10T06:28:37.683Z,14.23
2022-09-10T06:31:05.625Z,11.70
2022-09-10T06:33:33.846Z,11.53
2022-09-10T06:36:01.788Z,18.50
2022-09-10T06:38:33.731Z,18.53
2022-09-10T06:41:02.455Z,14.63
2022-09-10T06:43:32.872Z,13.00
2022-09-10T06:45:59.697Z,11.87
2022-09-10T06:48:49.657Z,15.77
2022-09-10T06:51:16.420Z,14.47
2022-09-10T06:53:44.462Z,18.80
2022-09-10T06:56:12.157Z,14.37
2022-09-10T06:58:39.735Z,15.93
2022-09-10T07:01:15.240Z,14.17
2022-09-10T07:03:43.455Z,16.27
2022-09-10T07:06:13.383Z,12.90
2022-09-10T07:08:40.435Z,13.27
2022-09-10T07:11:13.611Z,18.63
2022-09-10T07:13:41.138Z,15.17
2022-09-10T07:16:08.263Z,14.97
2022-09-10T07:18:35.472Z,15.10
2022-09-10T07:21:13.026Z,14.10
2022-09-10T07:23:40.568Z,13.67
2022-09-10T07:26:09.976Z,12.87
2022-09-10T07:28:38.240Z,14.70
2022-09-10T07:31:21.157Z,14.07
2022-09-10T07:33:48.605Z,12.90
2022-09-10T07:36:16.281Z,11.87
2022-09-10T07:39:04.366Z,14.33
2022-09-10T07:41:34.408Z,11.53
2022-09-10T07:44:01.039Z,11.77
2022-09-10T07:46:28.503Z,13.87
2022-09-10T07:48:57.636Z,10.17
2022-09-10T07:51:26.099Z,15.73
2022-09-10T07:53:54.207Z,15.57
2022-09-10T07:56:21.281Z,11.33
2022-09-10T07:58:47.864Z,15.73
2022-09-10T08:01:15.169Z,15.03
2022-09-10T08:03:41.868Z,14.40
2022-09-10T08:06:09.756Z,11.33
2022-09-10T08:08:38.692Z,10.87
2022-09-10T08:11:13.887Z,12.77
2022-09-10T08:13:42.088Z,10.67
2022-09-10T08:16:11.055Z,12.17
2022-09-10T08:18:38.250Z,12.30
2022-09-10T08:21:07.589Z,10.27
2022-09-10T08:23:34.590Z,10.37
2022-09-10T08:26:01.633Z,10.90
2022-09-10T08:28:28.429Z,9.03
2022-09-10T08:31:01.921Z,8.97
2022-09-10T08:33:29.889Z,9.57
2022-09-10T08:35:58.134Z,11.40
2022-09-10T08:38:37.096Z,15.40
2022-09-10T08:41:32.623Z,9.93
2022-09-10T08:44:10.314Z,10.37
2022-09-10T08:46:44.310Z,7.23
2022-09-10T08:49:43.183Z,8.23
2022-09-10T08:52:34.440Z,8.73
2022-09-10T08:55:19.344Z,5.67
2022-09-10T08:57:51.058Z,6.70
2022-09-10T09:00:24.749Z,8.00
2022-09-10T09:03:10.075Z,11.20
2022-09-10T09:05:46.511Z,7.07
2022-09-10T09:08:17.786Z,5.97
2022-09-10T09:11:11.177Z,6.50
2022-09-10T09:13:49.388Z,7.63
2022-09-10T09:16:22.884Z,7.20
2022-09-10T09:19:14.803Z,6.50
2022-09-10T09:21:55.782Z,6.33
2022-09-10T09:24:45.972Z,4.50
2022-09-10T09:27:17.033Z,4.67
2022-09-10T09:30:01.004Z,8.93
2022-09-10T09:32:31.501Z,6.17
2022-09-10T09:35:23.838Z,6.47
2022-09-10T09:38:02.037Z,3.70
2022-09-10T09:40:37.090Z,4.93
2022-09-10T09:43:24.341Z,4.07
2022-09-10T09:45:54.070Z,6.37
2022-09-10T09:48:25.241Z,4.93
2022-09-10T09:50:57.744Z,4.00
2022-09-10T09:53:27.651Z,5.33
2022-09-10T09:56:05.080Z,3.33
2022-09-10T09:58:37.716Z,3.00
2022-09-10T10:01:12.290Z,2.93
2022-09-10T10:04:22.347Z,4.43
2022-09-10T10:07:26.495Z,3.87
2022-09-10T10:09:57.017Z,4.93
2022-09-10T10:12:25.313Z,2.33
2022-09-10T10:14:54.830Z,2.63
2022-09-10T10:17:25.289Z,3.47
2022-09-10T10:20:05.271Z,2.77
2022-09-10T10:22:38.721Z,3.13
2022-09-10T10:25:45.432Z,2.27
2022-09-10T10:31:08.859Z,2.70
2022-09-10T10:33:40.054Z,6.37
2022-09-10T10:36:13.993Z,2.30
2022-09-10T10:38:51.990Z,4.93
2022-09-10T10:41:54.086Z,2.43
2022-09-10T10:44:27.927Z,4.87
2022-09-10T10:47:08.245Z,3.57
2022-09-10T10:49:55.109Z,6.97
2022-09-10T10:52:28.233Z,3.00
2022-09-10T10:55:11.563Z,3.50
2022-09-10T11:01:17.043Z,4.80
2022-09-10T11:04:07.980Z,4.05
2022-09-10T11:06:45.979Z,4.23
2022-09-10T11:09:43.819Z,4.45
2022-09-10T11:12:43.054Z,3.20
2022-09-10T11:15:22.313Z,4.35
2022-09-10T11:18:36.006Z,1.97
2022-09-10T11:21:58.841Z,5.10
2022-09-10T11:24:29.367Z,4.10
2022-09-10T11:27:07.799Z,4.55
2022-09-10T11:30:25.497Z,2.50
2022-09-10T11:33:02.144Z,3.10
2022-09-10T11:35:34.383Z,3.63
2022-09-10T11:38:31.501Z,3.53
2022-09-10T11:41:22.716Z,5.50
2022-09-10T11:44:14.713Z,4.78
2022-09-10T11:47:15.759Z,2.72
2022-09-10T11:50:22.199Z,5.80
2022-09-10T11:52:50.014Z,3.55
2022-09-10T11:55:23.571Z,4.55
2022-09-10T11:58:01.456Z,2.50
2022-09-10T12:00:32.721Z,4.93
2022-09-10T12:03:39.146Z,2.25
2022-09-10T12:06:36.512Z,2.72
2022-09-10T12:09:15.103Z,1.85
2022-09-10T12:11:56.999Z,2.38
2022-09-10T12:14:25.858Z,3.50
2022-09-10T12:16:59.284Z,0.85
2022-09-10T12:19:32.128Z,1.05
2022-09-10T12:22:06.638Z,2.78
2022-09-10T12:24:39.546Z,1.42
2022-09-10T12:27:08.531Z,2.33
2022-09-10T12:29:41.834Z,2.58
2022-09-10T12:32:10.273Z,3.22
2022-09-10T12:34:38.809Z,1.10
2022-09-10T12:37:06.211Z,1.05
2022-09-10T12:39:35.279Z,1.75
2022-09-10T12:42:23.441Z,1.60
2022-09-10T12:44:51.427Z,1.45
2022-09-10T12:47:28.043Z,1.13
2022-09-10T12:50:07.401Z,3.08
2022-09-10T12:52:51.245Z,1.23
2022-09-10T12:55:53.964Z,2.55
2022-09-10T12:58:39.916Z,2.47
2022-09-10T13:01:11.126Z,2.30
2022-09-10T13:03:59.351Z,0.85
2022-09-10T13:06:48.602Z,1.73
2022-09-10T13:09:22.161Z,2.63
2022-09-10T13:11:54.539Z,0.90
2022-09-10T13:14:34.895Z,4.75
2022-09-10T13:17:03.563Z,3.53
2022-09-10T13:19:36.142Z,2.35
2022-09-10T13:22:04.878Z,1.23
2022-09-10T13:24:35.885Z,3.42
2022-09-10T13:27:13.306Z,3.83
2022-09-10T13:29:47.666Z,4.03
2022-09-10T13:32:44.525Z,6.22
2022-09-10T13:35:52.965Z,4.15
2022-09-10T13:39:03.133Z,1.85
2022-09-10T13:42:18.624Z,5.15
2022-09-10T13:45:18.903Z,3.47
2022-09-10T13:48:00.572Z,2.47
2022-09-10T13:50:56.501Z,3.33
2022-09-10T13:53:28.824Z,2.92
2022-09-10T13:58:51.453Z,2.60
2022-09-10T14:01:46.546Z,5.53
2022-09-10T14:04:44.270Z,5.00
2022-09-10T14:07:22.578Z,2.83
2022-09-10T14:09:57.071Z,6.90
2022-09-10T14:12:29.924Z,4.90
2022-09-10T14:15:03.153Z,3.20
2022-09-10T14:17:42.249Z,2.72
2022-09-10T14:20:25.950Z,2.70
2022-09-10T14:23:18.502Z,3.33
2022-09-10T14:25:47.962Z,2.30
2022-09-10T14:28:17.209Z,1.92
2022-09-10T14:30:46.273Z,2.38
2022-09-10T14:33:35.722Z,9.40
2022-09-10T14:36:34.012Z,2.42
2022-09-10T14:39:20.264Z,2.90
2022-09-10T14:42:04.516Z,2.43
2022-09-10T14:44:39.769Z,3.78
2022-09-10T14:47:11.125Z,1.98
2022-09-10T14:49:47.436Z,0.90
2022-09-10T14:52:15.687Z,1.33
2022-09-10T14:54:46.165Z,1.98
2022-09-10T14:57:16.271Z,0.80
2022-09-10T14:59:46.632Z,1.67
2022-09-10T15:02:23.284Z,1.85
2022-09-10T15:05:01.540Z,1.98
2022-09-10T15:07:29.708Z,1.35
2022-09-10T15:09:59.656Z,2.92
2022-09-10T15:12:29.874Z,2.35
2022-09-10T15:14:58.356Z,3.47
2022-09-10T15:17:27.050Z,6.95
2022-09-10T15:19:56.957Z,2.42
2022-09-10T15:22:27.844Z,4.40
2022-09-10T15:25:12.562Z,3.40
2022-09-10T15:27:42.473Z,3.42
2022-09-10T15:30:10.563Z,5.23
2022-09-10T15:32:37.831Z,8.13
2022-09-10T15:35:06.351Z,4.70
2022-09-10T15:37:35.129Z,6.67
2022-09-10T15:40:04.557Z,5.43
2022-09-10T15:42:34.330Z,7.85
2022-09-10T15:45:01.297Z,5.63
2022-09-10T15:47:29.162Z,5.18
2022-09-10T15:49:56.968Z,5.50
2022-09-10T15:52:24.770Z,4.20
2022-09-10T15:54:52.895Z,9.57
2022-09-10T15:57:20.744Z,8.60
2022-09-10T15:59:48.741Z,5.72
2022-09-10T16:02:16.792Z,6.55
2022-09-10T16:04:43.794Z,11.68
2022-09-10T16:07:11.833Z,7.20
2022-09-10T16:09:39.143Z,6.43
2022-09-10T16:12:06.930Z,9.13
2022-09-10T16:14:34.982Z,7.83
2022-09-10T16:17:02.794Z,9.07
2022-09-10T16:19:31.251Z,11.82
2022-09-10T16:21:59.330Z,11.20
2022-09-10T16:24:26.229Z,9.13
2022-09-10T16:26:54.565Z,10.27
2022-09-10T16:29:22.072Z,9.50
2022-09-10T16:31:51.119Z,10.20
2022-09-10T16:34:20.927Z,6.40
2022-09-10T16:36:49.330Z,8.63
2022-09-10T16:39:17.942Z,9.90
2022-09-10T16:44:34.192Z,13.43
2022-09-10T16:47:02.286Z,10.37
2022-09-10T16:49:29.346Z,14.13
2022-09-10T16:51:57.303Z,12.17
2022-09-10T16:54:28.379Z,8.40
2022-09-10T16:56:57.131Z,15.07
2022-09-10T16:59:29.219Z,10.70
2022-09-10T17:02:13.508Z,11.33
2022-09-10T17:04:48.879Z,11.53
2022-09-10T17:07:16.881Z,10.33
2022-09-10T17:09:45.439Z,6.73
2022-09-10T17:12:14.431Z,6.90
2022-09-10T17:14:42.761Z,8.00
2022-09-10T17:17:11.045Z,12.33
2022-09-10T17:19:41.140Z,9.57
2022-09-10T17:22:10.972Z,9.23
2022-09-10T17:24:39.800Z,10.57
2022-09-10T17:27:07.999Z,10.43
2022-09-10T17:29:35.844Z,12.07
2022-09-10T17:34:48.362Z,11.80
2022-09-10T17:37:17.372Z,6.83
2022-09-10T17:39:48.559Z,9.43
2022-09-10T17:42:20.661Z,11.20
2022-09-10T17:44:50.776Z,9.50
2022-09-10T17:47:18.937Z,13.80
2022-09-10T17:49:49.448Z,9.13
2022-09-10T17:52:19.203Z,9.13
2022-09-10T17:54:47.787Z,13.77
2022-09-10T17:57:17.416Z,10.90
2022-09-10T17:59:46.522Z,11.83
2022-09-10T18:02:19.353Z,8.80
2022-09-10T18:04:51.504Z,7.37
2022-09-10T18:07:20.404Z,11.07
2022-09-10T18:09:51.973Z,7.73
2022-09-10T18:12:22.972Z,9.17
2022-09-10T18:14:52.289Z,15.43
2022-09-10T18:17:21.451Z,10.70
2022-09-10T18:19:52.179Z,10.33
2022-09-10T18:22:22.287Z,14.57
2022-09-10T18:24:50.715Z,13.73
2022-09-10T18:27:19.546Z,14.50
2022-09-10T18:29:48.217Z,9.47
2022-09-10T18:32:17.526Z,9.03
2022-09-10T18:34:45.501Z,9.23
2022-09-10T18:37:14.225Z,14.20
2022-09-10T18:39:42.579Z,10.20
2022-09-10T18:42:11.547Z,12.43
2022-09-10T18:44:39.815Z,12.43
2022-09-10T18:47:28.062Z,16.00
2022-09-10T18:49:59.369Z,14.77
2022-09-10T18:52:29.835Z,13.13
2022-09-10T18:54:58.182Z,13.60
2022-09-10T18:57:26.435Z,14.23
2022-09-10T18:59:55.931Z,12.23
2022-09-10T19:02:24.322Z,11.00
2022-09-10T19:05:11.767Z,8.83
2022-09-10T19:07:40.964Z,11.13
2022-09-10T19:10:09.187Z,15.40
2022-09-10T19:12:37.481Z,9.97
2022-09-10T19:15:05.255Z,14.63
2022-09-10T19:17:33.536Z,12.00
2022-09-10T19:20:01.445Z,15.40
2022-09-10T19:22:28.766Z,13.30
2022-09-10T19:24:57.975Z,11.87
2022-09-10T19:27:26.807Z,20.17
2022-09-10T19:29:56.366Z,11.97
2022-09-10T19:32:29.091Z,10.57
2022-09-10T19:35:03.013Z,11.53
2022-09-10T19:37:31.669Z,12.60
2022-09-10T19:40:01.860Z,16.80
2022-09-10T19:43:13.151Z,15.50
2022-09-10T19:45:41.674Z,10.33
2022-09-10T19:48:10.071Z,11.20
2022-09-10T19:50:41.105Z,12.07
2022-09-10T19:53:08.691Z,8.40
2022-09-10T19:55:41.239Z,14.67
2022-09-10T19:58:09.103Z,11.50
2022-09-10T20:00:46.927Z,12.87
2022-09-10T20:03:14.954Z,9.80
2022-09-10T20:05:43.135Z,10.70
2022-09-10T20:08:11.122Z,11.67
2022-09-10T20:10:39.429Z,9.50
2022-09-10T20:16:07.000Z,13.03
2022-09-10T20:18:38.020Z,9.80
2022-09-10T20:21:15.330Z,11.67
2022-09-10T20:23:45.335Z,12.30
2022-09-10T20:26:34.826Z,12.50
2022-09-10T20:29:09.953Z,10.50
2022-09-10T20:31:41.442Z,11.43
2022-09-10T20:34:12.519Z,9.73
2022-09-10T20:36:42.984Z,12.23
2022-09-10T20:39:13.985Z,10.07
2022-09-10T20:41:42.548Z,9.40
2022-09-10T20:44:13.344Z,8.97
2022-09-10T20:46:45.862Z,8.70
2022-09-10T20:49:16.626Z,10.77
2022-09-10T20:51:47.545Z,9.90
2022-09-10T20:54:19.563Z,10.63
2022-09-10T20:56:47.537Z,11.03
2022-09-10T20:59:17.743Z,8.77
2022-09-10T21:01:46.702Z,13.27
2022-09-10T21:04:14.516Z,11.67
2022-09-10T21:06:43.482Z,14.63
2022-09-10T21:09:13.029Z,13.17
2022-09-10T21:11:40.923Z,14.03
2022-09-10T21:14:10.944Z,13.33
2022-09-10T21:16:41.857Z,14.57
2022-09-10T21:19:17.028Z,10.57
2022-09-10T21:21:49.162Z,11.87
2022-09-10T21:24:22.741Z,9.43
2022-09-10T21:26:53.560Z,12.00
2022-09-10T21:29:22.738Z,12.23
2022-09-10T21:31:55.032Z,10.60
2022-09-10T21:34:23.637Z,10.37
2022-09-10T21:36:51.719Z,9.83
2022-09-10T21:39:20.399Z,11.00
2022-09-10T21:41:50.353Z,12.93
2022-09-10T21:44:20.729Z,10.27
2022-09-10T21:46:49.707Z,11.97
2022-09-10T21:49:18.107Z,10.03
2022-09-10T21:51:46.795Z,13.00
2022-09-10T21:54:21.714Z,12.93
2022-09-10T21:56:53.924Z,12.00
2022-09-10T21:59:22.675Z,10.17
2022-09-10T22:01:51.481Z,10.20
2022-09-10T22:04:22.793Z,11.83
2022-09-10T22:06:51.237Z,10.40
2022-09-10T22:09:20.110Z,11.67
2022-09-10T22:11:51.457Z,11.70
2022-09-10T22:14:23.070Z,12.07
2022-09-10T22:16:51.969Z,9.97
2022-09-10T22:19:26.147Z,10.83
2022-09-10T22:21:56.402Z,11.87
2022-09-10T22:24:24.697Z,10.50
2022-09-10T22:26:52.886Z,10.80
2022-09-10T22:29:21.678Z,11.97
2022-09-10T22:31:50.831Z,10.13
2022-09-10T22:34:19.008Z,11.00
2022-09-10T22:36:48.711Z,10.10
2022-09-10T22:39:18.136Z,12.80
2022-09-10T22:41:49.619Z,12.47
2022-09-10T22:44:20.613Z,13.03
2022-09-10T22:46:48.440Z,13.50
2022-09-10T22:49:16.755Z,9.93
2022-09-10T22:51:45.527Z,13.27
2022-09-10T22:54:14.330Z,15.33
2022-09-10T22:56:42.393Z,11.77
2022-09-10T22:59:14.149Z,12.60
2022-09-10T23:01:43.436Z,13.23
2022-09-10T23:04:11.764Z,13.00
2022-09-10T23:06:41.036Z,12.30
2022-09-10T23:09:13.973Z,11.33
2022-09-10T23:11:42.156Z,12.37
2022-09-10T23:14:13.221Z,19.27
2022-09-10T23:16:42.935Z,18.50
2022-09-10T23:19:15.749Z,20.07
2022-09-10T23:21:45.936Z,18.37
2022-09-10T23:24:17.768Z,20.10
2022-09-10T23:26:46.372Z,20.27
2022-09-10T23:29:17.596Z,16.17
2022-09-10T23:31:46.328Z,16.53
2022-09-10T23:34:19.314Z,22.23
2022-09-10T23:36:49.820Z,16.07
2022-09-10T23:39:22.692Z,16.17
2022-09-10T23:41:52.699Z,14.57
2022-09-10T23:44:20.616Z,15.27
2022-09-10T23:46:48.495Z,17.93
2022-09-10T23:49:16.338Z,15.80
2022-09-10T23:51:45.379Z,15.63
2022-09-10T23:54:13.544Z,14.77
2022-09-10T23:56:41.792Z,16.13
2022-09-10T23:59:09.659Z,16.03
